Bookmark and Share
Track history (hours):
 

Anastasia St

Last reported at 2013-Sep-07 02:07 UTC. Time now 2014-Apr-23 12:41 UTC.
Position N 36°57' E 026°48'.
Warning: this ship's position is months out of date.

Length 30 m.

Type: Pleasure craft. MMSI: 518513000.

NotesDate/timePositionNaut miles runAvg speedWind from/ knotsBaromVisibWave heightAir tempDewpointWater temp
2013-Sep-07 02:07N 36°57' E 026°48'5 6.8
2013-Sep-07 01:20N 36°59' E 026°43'6 6.9
2013-Sep-07 00:26N 37°02' E 026°35'14 7.7
2013-Sep-06 22:33N 37°06' E 026°18'8 7.8
2013-Sep-06 21:33N 37°08' E 026°08'8 7.8
2013-Sep-06 20:33N 37°09' E 025°59'9 8.1
2013-Sep-06 19:27N 37°11' E 025°48'16 7.7
2013-Sep-06 17:25N 37°15' E 025°29'8 9.3
2013-Sep-06 16:33N 37°17' E 025°19'10 9.3
2013-Sep-06 15:29N 37°18' E 025°07'9 9.6
2013-Sep-06 14:33N 37°20' E 024°56'29 9.5
2013-Sep-06 11:32N 37°30' E 024°22'12 9.6
2013-Sep-06 10:18N 37°33' E 024°07'24 8.7
2013-Sep-06 07:33N 37°48' E 023°43'9 8.7
2013-Sep-06 06:31N 37°56' E 023°39'  
2013-Sep-03 13:17N 37°56' E 023°39'0 0.0
2013-Sep-03 12:23N 37°56' E 023°39'0 0.0
2013-Sep-03 11:16N 37°56' E 023°39'0 0.0
2013-Sep-03 10:28N 37°56' E 023°39'0 0.0
2013-Sep-03 09:31N 37°56' E 023°39'0 0.0
2013-Sep-03 08:19N 37°56' E 023°39'  
2013-Aug-29 12:07N 37°56' E 023°39'0 0.0
2013-Aug-29 11:19N 37°56' E 023°39'0 0.1
2013-Aug-29 10:09N 37°56' E 023°39'  

Dump ship's entire track history

sailing weather and tide predictions

Anastasia St — E5U2463 — position and weather